sensor_id;sensor_type;location;lat;lon;timestamp;P1;durP1;ratioP1;P2;durP2;ratioP2
18449;SDS011;9354;50.194;7.690;2022-12-29T00:02:17;5.27;;;1.70;;
18449;SDS011;9354;50.194;7.690;2022-12-29T00:04:46;3.47;;;1.90;;
18449;SDS011;9354;50.194;7.690;2022-12-29T00:07:13;2.40;;;1.77;;
18449;SDS011;9354;50.194;7.690;2022-12-29T00:09:40;3.97;;;2.00;;
18449;SDS011;9354;50.194;7.690;2022-12-29T00:12:08;6.57;;;2.17;;
18449;SDS011;9354;50.194;7.690;2022-12-29T00:14:35;3.03;;;1.90;;
18449;SDS011;9354;50.194;7.690;2022-12-29T00:17:28;4.13;;;1.93;;
18449;SDS011;9354;50.194;7.690;2022-12-29T00:19:57;4.07;;;2.00;;
18449;SDS011;9354;50.194;7.690;2022-12-29T00:22:42;5.37;;;2.00;;
18449;SDS011;9354;50.194;7.690;2022-12-29T00:25:41;5.03;;;1.83;;
18449;SDS011;9354;50.194;7.690;2022-12-29T00:28:26;2.43;;;1.67;;
18449;SDS011;9354;50.194;7.690;2022-12-29T00:31:11;2.47;;;1.63;;
18449;SDS011;9354;50.194;7.690;2022-12-29T00:33:56;4.80;;;2.40;;
18449;SDS011;9354;50.194;7.690;2022-12-29T00:36:42;3.13;;;2.00;;
18449;SDS011;9354;50.194;7.690;2022-12-29T00:39:12;7.40;;;2.63;;
18449;SDS011;9354;50.194;7.690;2022-12-29T00:42:02;5.17;;;2.40;;
18449;SDS011;9354;50.194;7.690;2022-12-29T00:44:59;3.63;;;2.43;;
18449;SDS011;9354;50.194;7.690;2022-12-29T00:47:26;4.93;;;2.30;;
18449;SDS011;9354;50.194;7.690;2022-12-29T00:49:53;6.03;;;2.90;;
18449;SDS011;9354;50.194;7.690;2022-12-29T00:52:21;4.93;;;1.90;;
18449;SDS011;9354;50.194;7.690;2022-12-29T00:54:49;4.87;;;2.33;;
18449;SDS011;9354;50.194;7.690;2022-12-29T00:57:16;5.77;;;2.53;;
18449;SDS011;9354;50.194;7.690;2022-12-29T00:59:43;4.03;;;2.10;;
18449;SDS011;9354;50.194;7.690;2022-12-29T01:02:11;8.50;;;2.93;;
18449;SDS011;9354;50.194;7.690;2022-12-29T01:04:38;2.57;;;1.60;;
18449;SDS011;9354;50.194;7.690;2022-12-29T01:07:06;2.03;;;1.50;;
18449;SDS011;9354;50.194;7.690;2022-12-29T01:09:35;2.93;;;1.77;;
18449;SDS011;9354;50.194;7.690;2022-12-29T01:12:20;6.70;;;2.47;;
18449;SDS011;9354;50.194;7.690;2022-12-29T01:15:06;5.53;;;2.17;;
18449;SDS011;9354;50.194;7.690;2022-12-29T01:17:34;2.70;;;1.70;;
18449;SDS011;9354;50.194;7.690;2022-12-29T01:20:02;4.70;;;2.00;;
18449;SDS011;9354;50.194;7.690;2022-12-29T01:22:30;2.97;;;1.80;;
18449;SDS011;9354;50.194;7.690;2022-12-29T01:24:59;2.80;;;1.70;;
18449;SDS011;9354;50.194;7.690;2022-12-29T01:27:26;2.83;;;1.53;;
18449;SDS011;9354;50.194;7.690;2022-12-29T01:29:54;2.17;;;1.40;;
18449;SDS011;9354;50.194;7.690;2022-12-29T01:32:21;2.73;;;1.30;;
18449;SDS011;9354;50.194;7.690;2022-12-29T01:34:48;1.87;;;1.37;;
18449;SDS011;9354;50.194;7.690;2022-12-29T01:37:16;2.00;;;1.40;;
18449;SDS011;9354;50.194;7.690;2022-12-29T01:39:43;1.83;;;1.07;;
18449;SDS011;9354;50.194;7.690;2022-12-29T01:42:13;1.80;;;1.10;;
18449;SDS011;9354;50.194;7.690;2022-12-29T01:44:47;5.83;;;1.00;;
18449;SDS011;9354;50.194;7.690;2022-12-29T01:47:19;1.50;;;1.03;;
18449;SDS011;9354;50.194;7.690;2022-12-29T01:49:53;1.53;;;1.10;;
18449;SDS011;9354;50.194;7.690;2022-12-29T01:52:24;2.13;;;1.17;;
18449;SDS011;9354;50.194;7.690;2022-12-29T01:54:53;7.30;;;0.87;;
18449;SDS011;9354;50.194;7.690;2022-12-29T01:57:26;1.20;;;0.90;;
18449;SDS011;9354;50.194;7.690;2022-12-29T01:59:58;2.50;;;1.50;;
18449;SDS011;9354;50.194;7.690;2022-12-29T02:02:29;3.83;;;1.40;;
18449;SDS011;9354;50.194;7.690;2022-12-29T02:04:58;2.73;;;1.00;;
18449;SDS011;9354;50.194;7.690;2022-12-29T02:07:30;1.50;;;0.90;;
18449;SDS011;9354;50.194;7.690;2022-12-29T02:09:58;2.00;;;1.20;;
18449;SDS011;9354;50.194;7.690;2022-12-29T02:12:29;1.73;;;1.00;;
18449;SDS011;9354;50.194;7.690;2022-12-29T02:14:57;2.77;;;1.00;;
18449;SDS011;9354;50.194;7.690;2022-12-29T02:17:32;2.17;;;1.10;;
18449;SDS011;9354;50.194;7.690;2022-12-29T02:23:08;1.27;;;0.80;;
18449;SDS011;9354;50.194;7.690;2022-12-29T02:25:57;1.97;;;1.10;;
18449;SDS011;9354;50.194;7.690;2022-12-29T02:28:52;1.37;;;1.00;;
18449;SDS011;9354;50.194;7.690;2022-12-29T02:31:30;1.83;;;0.97;;
18449;SDS011;9354;50.194;7.690;2022-12-29T02:34:06;3.23;;;0.90;;
18449;SDS011;9354;50.194;7.690;2022-12-29T02:36:43;2.17;;;1.00;;
18449;SDS011;9354;50.194;7.690;2022-12-29T02:39:15;2.93;;;1.00;;
18449;SDS011;9354;50.194;7.690;2022-12-29T02:41:52;1.40;;;0.93;;
18449;SDS011;9354;50.194;7.690;2022-12-29T02:44:26;2.40;;;1.00;;
18449;SDS011;9354;50.194;7.690;2022-12-29T02:47:04;1.23;;;0.83;;
18449;SDS011;9354;50.194;7.690;2022-12-29T02:49:38;1.80;;;0.77;;
18449;SDS011;9354;50.194;7.690;2022-12-29T02:52:10;2.67;;;0.80;;
18449;SDS011;9354;50.194;7.690;2022-12-29T02:54:42;2.47;;;0.70;;
18449;SDS011;9354;50.194;7.690;2022-12-29T02:57:11;0.87;;;0.70;;
18449;SDS011;9354;50.194;7.690;2022-12-29T02:59:38;1.00;;;0.70;;
18449;SDS011;9354;50.194;7.690;2022-12-29T03:05:22;1.47;;;0.60;;
18449;SDS011;9354;50.194;7.690;2022-12-29T03:08:03;0.97;;;0.60;;
18449;SDS011;9354;50.194;7.690;2022-12-29T03:10:37;1.57;;;0.70;;
18449;SDS011;9354;50.194;7.690;2022-12-29T03:13:13;0.87;;;0.60;;
18449;SDS011;9354;50.194;7.690;2022-12-29T03:16:06;1.17;;;0.70;;
18449;SDS011;9354;50.194;7.690;2022-12-29T03:18:44;1.00;;;0.80;;
18449;SDS011;9354;50.194;7.690;2022-12-29T03:21:17;2.77;;;0.47;;
18449;SDS011;9354;50.194;7.690;2022-12-29T03:24:10;0.90;;;0.63;;
18449;SDS011;9354;50.194;7.690;2022-12-29T03:26:37;0.93;;;0.57;;
18449;SDS011;9354;50.194;7.690;2022-12-29T03:29:07;1.50;;;0.63;;
18449;SDS011;9354;50.194;7.690;2022-12-29T03:31:36;1.43;;;0.80;;
18449;SDS011;9354;50.194;7.690;2022-12-29T03:34:06;1.03;;;0.50;;
18449;SDS011;9354;50.194;7.690;2022-12-29T03:36:36;1.07;;;0.60;;
18449;SDS011;9354;50.194;7.690;2022-12-29T03:39:08;1.73;;;0.57;;
18449;SDS011;9354;50.194;7.690;2022-12-29T03:41:37;2.83;;;0.93;;
18449;SDS011;9354;50.194;7.690;2022-12-29T03:44:10;1.60;;;0.77;;
18449;SDS011;9354;50.194;7.690;2022-12-29T03:46:39;3.50;;;0.77;;
18449;SDS011;9354;50.194;7.690;2022-12-29T03:49:07;0.70;;;0.50;;
18449;SDS011;9354;50.194;7.690;2022-12-29T03:51:35;1.20;;;0.70;;
18449;SDS011;9354;50.194;7.690;2022-12-29T03:54:03;1.53;;;0.73;;
18449;SDS011;9354;50.194;7.690;2022-12-29T03:56:31;3.03;;;0.70;;
18449;SDS011;9354;50.194;7.690;2022-12-29T03:58:58;3.57;;;0.90;;
18449;SDS011;9354;50.194;7.690;2022-12-29T04:01:25;1.17;;;0.80;;
18449;SDS011;9354;50.194;7.690;2022-12-29T04:03:53;2.73;;;0.90;;
18449;SDS011;9354;50.194;7.690;2022-12-29T04:06:21;1.13;;;0.77;;
18449;SDS011;9354;50.194;7.690;2022-12-29T04:08:49;3.13;;;0.80;;
18449;SDS011;9354;50.194;7.690;2022-12-29T04:11:16;0.90;;;0.50;;
18449;SDS011;9354;50.194;7.690;2022-12-29T04:13:44;3.60;;;0.90;;
18449;SDS011;9354;50.194;7.690;2022-12-29T04:16:11;4.20;;;1.10;;
18449;SDS011;9354;50.194;7.690;2022-12-29T04:18:38;1.93;;;0.83;;
18449;SDS011;9354;50.194;7.690;2022-12-29T04:21:06;1.37;;;0.77;;
18449;SDS011;9354;50.194;7.690;2022-12-29T04:23:36;2.43;;;0.90;;
18449;SDS011;9354;50.194;7.690;2022-12-29T04:26:04;3.57;;;1.00;;
18449;SDS011;9354;50.194;7.690;2022-12-29T04:28:34;1.67;;;0.77;;
18449;SDS011;9354;50.194;7.690;2022-12-29T04:31:02;3.90;;;1.10;;
18449;SDS011;9354;50.194;7.690;2022-12-29T04:33:30;2.17;;;0.70;;
18449;SDS011;9354;50.194;7.690;2022-12-29T04:35:57;2.17;;;0.97;;
18449;SDS011;9354;50.194;7.690;2022-12-29T04:38:25;2.47;;;1.00;;
18449;SDS011;9354;50.194;7.690;2022-12-29T04:40:54;2.37;;;0.87;;
18449;SDS011;9354;50.194;7.690;2022-12-29T04:43:21;3.07;;;0.80;;
18449;SDS011;9354;50.194;7.690;2022-12-29T04:45:48;4.93;;;1.30;;
18449;SDS011;9354;50.194;7.690;2022-12-29T04:48:16;1.87;;;0.70;;
18449;SDS011;9354;50.194;7.690;2022-12-29T04:50:43;3.00;;;0.93;;
18449;SDS011;9354;50.194;7.690;2022-12-29T04:53:11;1.57;;;0.90;;
18449;SDS011;9354;50.194;7.690;2022-12-29T04:55:38;2.87;;;1.10;;
18449;SDS011;9354;50.194;7.690;2022-12-29T04:58:07;1.43;;;0.90;;
18449;SDS011;9354;50.194;7.690;2022-12-29T05:00:34;1.93;;;1.30;;
18449;SDS011;9354;50.194;7.690;2022-12-29T05:03:01;5.77;;;0.83;;
18449;SDS011;9354;50.194;7.690;2022-12-29T05:05:29;4.27;;;1.17;;
18449;SDS011;9354;50.194;7.690;2022-12-29T05:07:56;3.70;;;1.00;;
18449;SDS011;9354;50.194;7.690;2022-12-29T05:10:24;3.10;;;0.87;;
18449;SDS011;9354;50.194;7.690;2022-12-29T05:12:51;1.60;;;1.00;;
18449;SDS011;9354;50.194;7.690;2022-12-29T05:15:20;2.90;;;1.13;;
18449;SDS011;9354;50.194;7.690;2022-12-29T05:17:47;2.30;;;1.07;;
18449;SDS011;9354;50.194;7.690;2022-12-29T05:20:15;2.10;;;1.10;;
18449;SDS011;9354;50.194;7.690;2022-12-29T05:22:42;3.63;;;0.80;;
18449;SDS011;9354;50.194;7.690;2022-12-29T05:25:09;4.57;;;1.23;;
18449;SDS011;9354;50.194;7.690;2022-12-29T05:27:37;6.53;;;1.17;;
18449;SDS011;9354;50.194;7.690;2022-12-29T05:30:05;3.20;;;0.90;;
18449;SDS011;9354;50.194;7.690;2022-12-29T05:32:34;2.97;;;0.90;;
18449;SDS011;9354;50.194;7.690;2022-12-29T05:35:02;4.03;;;1.10;;
18449;SDS011;9354;50.194;7.690;2022-12-29T05:37:29;3.70;;;1.37;;
18449;SDS011;9354;50.194;7.690;2022-12-29T05:39:57;5.07;;;1.30;;
18449;SDS011;9354;50.194;7.690;2022-12-29T05:42:24;2.60;;;0.90;;
18449;SDS011;9354;50.194;7.690;2022-12-29T05:44:52;1.63;;;0.90;;
18449;SDS011;9354;50.194;7.690;2022-12-29T05:47:19;1.50;;;0.90;;
18449;SDS011;9354;50.194;7.690;2022-12-29T05:49:48;4.00;;;1.40;;
18449;SDS011;9354;50.194;7.690;2022-12-29T05:52:15;4.40;;;1.10;;
18449;SDS011;9354;50.194;7.690;2022-12-29T05:54:43;2.23;;;1.00;;
18449;SDS011;9354;50.194;7.690;2022-12-29T05:57:10;1.73;;;0.80;;
18449;SDS011;9354;50.194;7.690;2022-12-29T05:59:37;2.33;;;0.97;;
18449;SDS011;9354;50.194;7.690;2022-12-29T06:02:05;2.53;;;1.17;;
18449;SDS011;9354;50.194;7.690;2022-12-29T06:04:32;1.93;;;1.00;;
18449;SDS011;9354;50.194;7.690;2022-12-29T06:07:01;2.50;;;0.90;;
18449;SDS011;9354;50.194;7.690;2022-12-29T06:09:28;3.60;;;1.03;;
18449;SDS011;9354;50.194;7.690;2022-12-29T06:11:55;2.17;;;0.90;;
18449;SDS011;9354;50.194;7.690;2022-12-29T06:14:23;2.13;;;1.10;;
18449;SDS011;9354;50.194;7.690;2022-12-29T06:16:50;5.07;;;1.00;;
18449;SDS011;9354;50.194;7.690;2022-12-29T06:19:17;3.27;;;0.97;;
18449;SDS011;9354;50.194;7.690;2022-12-29T06:21:45;3.93;;;1.07;;
18449;SDS011;9354;50.194;7.690;2022-12-29T06:24:13;4.10;;;1.13;;
18449;SDS011;9354;50.194;7.690;2022-12-29T06:26:41;2.77;;;0.97;;
18449;SDS011;9354;50.194;7.690;2022-12-29T06:29:08;2.47;;;0.93;;
18449;SDS011;9354;50.194;7.690;2022-12-29T06:31:36;2.30;;;1.17;;
18449;SDS011;9354;50.194;7.690;2022-12-29T06:34:03;4.20;;;1.10;;
18449;SDS011;9354;50.194;7.690;2022-12-29T06:36:30;4.63;;;2.10;;
18449;SDS011;9354;50.194;7.690;2022-12-29T06:38:58;3.60;;;1.43;;
18449;SDS011;9354;50.194;7.690;2022-12-29T06:41:26;2.10;;;1.20;;
18449;SDS011;9354;50.194;7.690;2022-12-29T06:43:54;2.10;;;1.37;;
18449;SDS011;9354;50.194;7.690;2022-12-29T06:46:21;5.43;;;1.87;;
18449;SDS011;9354;50.194;7.690;2022-12-29T06:48:49;2.47;;;1.43;;
18449;SDS011;9354;50.194;7.690;2022-12-29T06:51:16;5.50;;;2.73;;
18449;SDS011;9354;50.194;7.690;2022-12-29T06:53:43;1.70;;;1.20;;
18449;SDS011;9354;50.194;7.690;2022-12-29T06:56:11;3.87;;;1.30;;
18449;SDS011;9354;50.194;7.690;2022-12-29T06:58:39;1.63;;;1.13;;
18449;SDS011;9354;50.194;7.690;2022-12-29T07:01:07;2.90;;;1.10;;
18449;SDS011;9354;50.194;7.690;2022-12-29T07:03:34;5.67;;;1.13;;
18449;SDS011;9354;50.194;7.690;2022-12-29T07:06:02;2.47;;;1.00;;
18449;SDS011;9354;50.194;7.690;2022-12-29T07:08:29;2.03;;;0.80;;
18449;SDS011;9354;50.194;7.690;2022-12-29T07:10:57;2.43;;;1.00;;
18449;SDS011;9354;50.194;7.690;2022-12-29T07:13:24;1.63;;;0.90;;
18449;SDS011;9354;50.194;7.690;2022-12-29T07:15:53;1.53;;;0.80;;
18449;SDS011;9354;50.194;7.690;2022-12-29T07:18:20;3.47;;;0.80;;
18449;SDS011;9354;50.194;7.690;2022-12-29T07:20:47;1.13;;;0.80;;
18449;SDS011;9354;50.194;7.690;2022-12-29T07:23:15;1.07;;;0.67;;
18449;SDS011;9354;50.194;7.690;2022-12-29T07:25:42;1.43;;;0.60;;
18449;SDS011;9354;50.194;7.690;2022-12-29T07:28:09;1.20;;;0.60;;
18449;SDS011;9354;50.194;7.690;2022-12-29T07:30:37;0.83;;;0.60;;
18449;SDS011;9354;50.194;7.690;2022-12-29T07:33:06;1.33;;;0.60;;
18449;SDS011;9354;50.194;7.690;2022-12-29T07:35:33;0.90;;;0.60;;
18449;SDS011;9354;50.194;7.690;2022-12-29T07:38:01;1.00;;;0.60;;
18449;SDS011;9354;50.194;7.690;2022-12-29T07:40:28;2.27;;;0.50;;
18449;SDS011;9354;50.194;7.690;2022-12-29T07:42:56;2.73;;;0.87;;
18449;SDS011;9354;50.194;7.690;2022-12-29T07:45:23;1.67;;;0.80;;
18449;SDS011;9354;50.194;7.690;2022-12-29T07:47:50;1.97;;;0.87;;
18449;SDS011;9354;50.194;7.690;2022-12-29T07:50:19;1.53;;;0.70;;
18449;SDS011;9354;50.194;7.690;2022-12-29T07:52:47;1.67;;;0.90;;
18449;SDS011;9354;50.194;7.690;2022-12-29T07:55:14;2.30;;;0.90;;
18449;SDS011;9354;50.194;7.690;2022-12-29T07:57:42;4.43;;;0.80;;
18449;SDS011;9354;50.194;7.690;2022-12-29T08:00:10;2.77;;;1.00;;
18449;SDS011;9354;50.194;7.690;2022-12-29T08:02:38;1.83;;;0.87;;
18449;SDS011;9354;50.194;7.690;2022-12-29T08:05:05;5.23;;;1.83;;
18449;SDS011;9354;50.194;7.690;2022-12-29T08:07:34;4.33;;;1.40;;
18449;SDS011;9354;50.194;7.690;2022-12-29T08:10:02;6.20;;;1.10;;
18449;SDS011;9354;50.194;7.690;2022-12-29T08:12:30;1.83;;;0.97;;
18449;SDS011;9354;50.194;7.690;2022-12-29T08:14:57;1.50;;;0.90;;
18449;SDS011;9354;50.194;7.690;2022-12-29T08:17:25;2.63;;;1.53;;
18449;SDS011;9354;50.194;7.690;2022-12-29T08:19:52;1.70;;;1.00;;
18449;SDS011;9354;50.194;7.690;2022-12-29T08:22:19;1.97;;;0.90;;
18449;SDS011;9354;50.194;7.690;2022-12-29T08:24:48;1.97;;;1.00;;
18449;SDS011;9354;50.194;7.690;2022-12-29T08:27:16;1.00;;;0.70;;
18449;SDS011;9354;50.194;7.690;2022-12-29T08:29:43;3.27;;;1.50;;
18449;SDS011;9354;50.194;7.690;2022-12-29T08:32:11;2.43;;;0.80;;
18449;SDS011;9354;50.194;7.690;2022-12-29T08:34:38;2.70;;;0.90;;
18449;SDS011;9354;50.194;7.690;2022-12-29T08:37:06;2.07;;;0.90;;
18449;SDS011;9354;50.194;7.690;2022-12-29T08:39:33;3.50;;;0.50;;
18449;SDS011;9354;50.194;7.690;2022-12-29T08:42:02;1.67;;;0.60;;
18449;SDS011;9354;50.194;7.690;2022-12-29T08:44:29;2.57;;;0.70;;
18449;SDS011;9354;50.194;7.690;2022-12-29T08:46:57;0.87;;;0.80;;
18449;SDS011;9354;50.194;7.690;2022-12-29T08:49:24;2.37;;;0.87;;
18449;SDS011;9354;50.194;7.690;2022-12-29T08:51:51;1.03;;;0.77;;
18449;SDS011;9354;50.194;7.690;2022-12-29T08:54:19;2.33;;;0.70;;
18449;SDS011;9354;50.194;7.690;2022-12-29T08:56:46;0.83;;;0.70;;
18449;SDS011;9354;50.194;7.690;2022-12-29T08:59:15;0.73;;;0.60;;
18449;SDS011;9354;50.194;7.690;2022-12-29T09:01:42;2.87;;;1.50;;
18449;SDS011;9354;50.194;7.690;2022-12-29T09:04:10;4.93;;;1.10;;
18449;SDS011;9354;50.194;7.690;2022-12-29T09:06:37;4.47;;;1.60;;
18449;SDS011;9354;50.194;7.690;2022-12-29T09:09:04;2.80;;;1.10;;
18449;SDS011;9354;50.194;7.690;2022-12-29T09:11:32;1.57;;;0.90;;
18449;SDS011;9354;50.194;7.690;2022-12-29T09:13:59;2.33;;;0.80;;
18449;SDS011;9354;50.194;7.690;2022-12-29T09:16:28;3.50;;;1.00;;
18449;SDS011;9354;50.194;7.690;2022-12-29T09:18:55;1.50;;;0.80;;
18449;SDS011;9354;50.194;7.690;2022-12-29T09:21:23;3.67;;;1.93;;
18449;SDS011;9354;50.194;7.690;2022-12-29T09:23:50;1.50;;;0.70;;
18449;SDS011;9354;50.194;7.690;2022-12-29T09:26:18;3.57;;;0.73;;
18449;SDS011;9354;50.194;7.690;2022-12-29T09:28:45;4.20;;;1.17;;
18449;SDS011;9354;50.194;7.690;2022-12-29T09:31:13;1.87;;;0.80;;
18449;SDS011;9354;50.194;7.690;2022-12-29T09:33:42;4.93;;;1.50;;
18449;SDS011;9354;50.194;7.690;2022-12-29T09:36:09;2.77;;;1.23;;
18449;SDS011;9354;50.194;7.690;2022-12-29T09:38:36;2.20;;;1.00;;
18449;SDS011;9354;50.194;7.690;2022-12-29T09:41:05;2.70;;;0.90;;
18449;SDS011;9354;50.194;7.690;2022-12-29T09:43:43;4.47;;;1.00;;
18449;SDS011;9354;50.194;7.690;2022-12-29T09:46:23;4.73;;;1.13;;
18449;SDS011;9354;50.194;7.690;2022-12-29T09:48:55;8.00;;;2.70;;
18449;SDS011;9354;50.194;7.690;2022-12-29T09:51:33;2.97;;;1.17;;
18449;SDS011;9354;50.194;7.690;2022-12-29T09:54:10;4.10;;;0.70;;
18449;SDS011;9354;50.194;7.690;2022-12-29T09:57:01;3.43;;;0.97;;
18449;SDS011;9354;50.194;7.690;2022-12-29T09:59:32;5.03;;;1.23;;
18449;SDS011;9354;50.194;7.690;2022-12-29T10:02:12;10.13;;;3.43;;
18449;SDS011;9354;50.194;7.690;2022-12-29T10:04:49;3.93;;;0.70;;
18449;SDS011;9354;50.194;7.690;2022-12-29T10:07:21;0.97;;;0.50;;
18449;SDS011;9354;50.194;7.690;2022-12-29T10:09:57;1.30;;;0.63;;
18449;SDS011;9354;50.194;7.690;2022-12-29T10:12:39;3.53;;;1.47;;
18449;SDS011;9354;50.194;7.690;2022-12-29T10:15:18;3.90;;;0.73;;
18449;SDS011;9354;50.194;7.690;2022-12-29T10:18:03;4.27;;;0.70;;
18449;SDS011;9354;50.194;7.690;2022-12-29T10:20:44;1.13;;;0.50;;
18449;SDS011;9354;50.194;7.690;2022-12-29T10:23:24;3.07;;;0.80;;
18449;SDS011;9354;50.194;7.690;2022-12-29T10:25:56;1.63;;;0.50;;
18449;SDS011;9354;50.194;7.690;2022-12-29T10:28:31;3.07;;;0.60;;
18449;SDS011;9354;50.194;7.690;2022-12-29T10:31:03;4.77;;;0.80;;
18449;SDS011;9354;50.194;7.690;2022-12-29T10:33:36;3.23;;;0.60;;
18449;SDS011;9354;50.194;7.690;2022-12-29T10:36:12;3.03;;;0.83;;
18449;SDS011;9354;50.194;7.690;2022-12-29T10:38:44;2.27;;;0.77;;
18449;SDS011;9354;50.194;7.690;2022-12-29T10:41:20;2.33;;;0.63;;
18449;SDS011;9354;50.194;7.690;2022-12-29T10:43:52;1.33;;;0.40;;
18449;SDS011;9354;50.194;7.690;2022-12-29T10:46:21;2.73;;;0.57;;
18449;SDS011;9354;50.194;7.690;2022-12-29T10:48:51;2.70;;;0.63;;
18449;SDS011;9354;50.194;7.690;2022-12-29T10:51:22;4.23;;;0.97;;
18449;SDS011;9354;50.194;7.690;2022-12-29T10:53:53;3.03;;;0.70;;
18449;SDS011;9354;50.194;7.690;2022-12-29T10:56:28;6.63;;;0.90;;
18449;SDS011;9354;50.194;7.690;2022-12-29T10:59:00;2.60;;;0.73;;
18449;SDS011;9354;50.194;7.690;2022-12-29T11:01:36;2.10;;;0.80;;
18449;SDS011;9354;50.194;7.690;2022-12-29T11:04:14;3.23;;;0.70;;
18449;SDS011;9354;50.194;7.690;2022-12-29T11:06:54;4.87;;;0.70;;
18449;SDS011;9354;50.194;7.690;2022-12-29T11:09:23;3.20;;;0.90;;
18449;SDS011;9354;50.194;7.690;2022-12-29T11:11:54;3.67;;;0.90;;
18449;SDS011;9354;50.194;7.690;2022-12-29T11:14:26;3.00;;;0.60;;
18449;SDS011;9354;50.194;7.690;2022-12-29T11:16:56;1.77;;;0.80;;
18449;SDS011;9354;50.194;7.690;2022-12-29T11:19:25;5.53;;;1.13;;
18449;SDS011;9354;50.194;7.690;2022-12-29T11:21:56;2.73;;;0.40;;
18449;SDS011;9354;50.194;7.690;2022-12-29T11:24:43;3.60;;;0.53;;
18449;SDS011;9354;50.194;7.690;2022-12-29T11:27:14;2.50;;;0.60;;
18449;SDS011;9354;50.194;7.690;2022-12-29T11:29:45;3.73;;;1.07;;
18449;SDS011;9354;50.194;7.690;2022-12-29T11:32:17;5.37;;;0.60;;
18449;SDS011;9354;50.194;7.690;2022-12-29T11:34:46;1.80;;;0.43;;
18449;SDS011;9354;50.194;7.690;2022-12-29T11:37:16;6.70;;;0.97;;
18449;SDS011;9354;50.194;7.690;2022-12-29T11:39:47;4.40;;;0.67;;
18449;SDS011;9354;50.194;7.690;2022-12-29T11:42:20;0.93;;;0.40;;
18449;SDS011;9354;50.194;7.690;2022-12-29T11:44:55;5.97;;;1.53;;
18449;SDS011;9354;50.194;7.690;2022-12-29T11:47:24;8.23;;;1.00;;
18449;SDS011;9354;50.194;7.690;2022-12-29T11:49:56;6.47;;;0.97;;
18449;SDS011;9354;50.194;7.690;2022-12-29T11:52:28;4.17;;;0.90;;
18449;SDS011;9354;50.194;7.690;2022-12-29T11:54:58;3.97;;;0.80;;
18449;SDS011;9354;50.194;7.690;2022-12-29T11:57:28;3.97;;;0.73;;
18449;SDS011;9354;50.194;7.690;2022-12-29T11:59:59;9.70;;;1.33;;
18449;SDS011;9354;50.194;7.690;2022-12-29T12:02:36;2.90;;;0.83;;
18449;SDS011;9354;50.194;7.690;2022-12-29T12:05:10;13.93;;;2.90;;
18449;SDS011;9354;50.194;7.690;2022-12-29T12:07:59;11.77;;;2.53;;
18449;SDS011;9354;50.194;7.690;2022-12-29T12:10:32;9.23;;;2.63;;
18449;SDS011;9354;50.194;7.690;2022-12-29T12:13:06;8.00;;;1.77;;
18449;SDS011;9354;50.194;7.690;2022-12-29T12:15:43;14.77;;;4.30;;
18449;SDS011;9354;50.194;7.690;2022-12-29T12:18:16;9.93;;;2.77;;
18449;SDS011;9354;50.194;7.690;2022-12-29T12:20:49;6.17;;;1.00;;
18449;SDS011;9354;50.194;7.690;2022-12-29T12:23:35;7.00;;;1.43;;
18449;SDS011;9354;50.194;7.690;2022-12-29T12:26:10;6.73;;;1.47;;
18449;SDS011;9354;50.194;7.690;2022-12-29T12:28:42;6.60;;;1.70;;
18449;SDS011;9354;50.194;7.690;2022-12-29T12:31:17;3.30;;;0.70;;
18449;SDS011;9354;50.194;7.690;2022-12-29T12:33:50;6.00;;;1.73;;
18449;SDS011;9354;50.194;7.690;2022-12-29T12:36:30;9.07;;;2.10;;
18449;SDS011;9354;50.194;7.690;2022-12-29T12:39:18;10.00;;;1.70;;
18449;SDS011;9354;50.194;7.690;2022-12-29T12:41:56;6.13;;;1.70;;
18449;SDS011;9354;50.194;7.690;2022-12-29T12:44:35;11.93;;;2.30;;
18449;SDS011;9354;50.194;7.690;2022-12-29T12:47:17;7.73;;;2.30;;
18449;SDS011;9354;50.194;7.690;2022-12-29T12:50:16;7.93;;;2.33;;
18449;SDS011;9354;50.194;7.690;2022-12-29T12:52:57;4.50;;;0.97;;
18449;SDS011;9354;50.194;7.690;2022-12-29T12:55:56;8.20;;;1.97;;
18449;SDS011;9354;50.194;7.690;2022-12-29T12:58:34;5.67;;;1.40;;
18449;SDS011;9354;50.194;7.690;2022-12-29T13:01:11;7.53;;;1.80;;
18449;SDS011;9354;50.194;7.690;2022-12-29T13:03:49;6.67;;;1.10;;
18449;SDS011;9354;50.194;7.690;2022-12-29T13:06:32;2.97;;;1.10;;
18449;SDS011;9354;50.194;7.690;2022-12-29T13:09:12;6.80;;;1.23;;
18449;SDS011;9354;50.194;7.690;2022-12-29T13:11:59;3.63;;;1.13;;
18449;SDS011;9354;50.194;7.690;2022-12-29T13:14:40;7.07;;;1.17;;
18449;SDS011;9354;50.194;7.690;2022-12-29T13:17:17;5.77;;;1.90;;
18449;SDS011;9354;50.194;7.690;2022-12-29T13:19:52;2.47;;;1.00;;
18449;SDS011;9354;50.194;7.690;2022-12-29T13:22:27;3.17;;;0.90;;
18449;SDS011;9354;50.194;7.690;2022-12-29T13:25:05;3.07;;;0.80;;
18449;SDS011;9354;50.194;7.690;2022-12-29T13:27:47;15.47;;;2.97;;
18449;SDS011;9354;50.194;7.690;2022-12-29T13:30:21;4.23;;;0.87;;
18449;SDS011;9354;50.194;7.690;2022-12-29T13:32:55;7.77;;;0.70;;
18449;SDS011;9354;50.194;7.690;2022-12-29T13:35:30;5.07;;;0.87;;
18449;SDS011;9354;50.194;7.690;2022-12-29T13:38:07;4.37;;;1.40;;
18449;SDS011;9354;50.194;7.690;2022-12-29T13:40:40;3.97;;;0.83;;
18449;SDS011;9354;50.194;7.690;2022-12-29T13:43:13;4.83;;;0.80;;
18449;SDS011;9354;50.194;7.690;2022-12-29T13:45:42;5.27;;;0.90;;
18449;SDS011;9354;50.194;7.690;2022-12-29T13:48:14;4.57;;;0.87;;
18449;SDS011;9354;50.194;7.690;2022-12-29T13:50:44;3.60;;;0.77;;
18449;SDS011;9354;50.194;7.690;2022-12-29T13:53:19;4.57;;;0.60;;
18449;SDS011;9354;50.194;7.690;2022-12-29T13:55:57;5.03;;;0.80;;
18449;SDS011;9354;50.194;7.690;2022-12-29T13:58:36;3.67;;;0.80;;
18449;SDS011;9354;50.194;7.690;2022-12-29T14:01:12;4.40;;;0.87;;
18449;SDS011;9354;50.194;7.690;2022-12-29T14:03:49;2.87;;;0.70;;
18449;SDS011;9354;50.194;7.690;2022-12-29T14:06:21;6.40;;;0.67;;
18449;SDS011;9354;50.194;7.690;2022-12-29T14:08:52;2.40;;;0.73;;
18449;SDS011;9354;50.194;7.690;2022-12-29T14:11:21;4.87;;;0.70;;
18449;SDS011;9354;50.194;7.690;2022-12-29T14:13:54;4.27;;;1.13;;
18449;SDS011;9354;50.194;7.690;2022-12-29T14:16:25;8.00;;;0.90;;
18449;SDS011;9354;50.194;7.690;2022-12-29T14:18:56;2.83;;;0.73;;
18449;SDS011;9354;50.194;7.690;2022-12-29T14:21:30;5.60;;;0.70;;
18449;SDS011;9354;50.194;7.690;2022-12-29T14:33:13;6.50;;;1.40;;
18449;SDS011;9354;50.194;7.690;2022-12-29T14:35:41;6.97;;;0.87;;
18449;SDS011;9354;50.194;7.690;2022-12-29T14:41:16;7.40;;;2.50;;
18449;SDS011;9354;50.194;7.690;2022-12-29T14:43:51;7.83;;;1.17;;
18449;SDS011;9354;50.194;7.690;2022-12-29T14:46:21;3.27;;;0.90;;
18449;SDS011;9354;50.194;7.690;2022-12-29T14:48:54;3.47;;;0.90;;
18449;SDS011;9354;50.194;7.690;2022-12-29T14:51:30;3.67;;;0.80;;
18449;SDS011;9354;50.194;7.690;2022-12-29T14:54:01;2.80;;;1.10;;
18449;SDS011;9354;50.194;7.690;2022-12-29T14:57:09;8.23;;;1.50;;
18449;SDS011;9354;50.194;7.690;2022-12-29T14:59:42;4.13;;;1.70;;
18449;SDS011;9354;50.194;7.690;2022-12-29T15:02:13;8.73;;;1.40;;
18449;SDS011;9354;50.194;7.690;2022-12-29T15:04:47;5.70;;;1.63;;
18449;SDS011;9354;50.194;7.690;2022-12-29T15:07:15;10.23;;;1.43;;
18449;SDS011;9354;50.194;7.690;2022-12-29T15:09:46;3.83;;;0.87;;
18449;SDS011;9354;50.194;7.690;2022-12-29T15:12:21;4.27;;;0.80;;
18449;SDS011;9354;50.194;7.690;2022-12-29T15:14:58;6.00;;;1.00;;
18449;SDS011;9354;50.194;7.690;2022-12-29T15:17:27;8.70;;;1.90;;
18449;SDS011;9354;50.194;7.690;2022-12-29T15:19:58;9.00;;;1.50;;
18449;SDS011;9354;50.194;7.690;2022-12-29T15:22:27;3.40;;;1.20;;
18449;SDS011;9354;50.194;7.690;2022-12-29T15:24:54;3.70;;;1.63;;
18449;SDS011;9354;50.194;7.690;2022-12-29T15:27:23;7.43;;;1.00;;
18449;SDS011;9354;50.194;7.690;2022-12-29T15:29:56;10.37;;;2.40;;
18449;SDS011;9354;50.194;7.690;2022-12-29T15:32:25;10.03;;;3.30;;
18449;SDS011;9354;50.194;7.690;2022-12-29T15:34:54;9.40;;;2.70;;
18449;SDS011;9354;50.194;7.690;2022-12-29T15:37:27;16.17;;;3.63;;
18449;SDS011;9354;50.194;7.690;2022-12-29T15:39:59;8.77;;;2.10;;
18449;SDS011;9354;50.194;7.690;2022-12-29T15:45:16;10.43;;;2.20;;
18449;SDS011;9354;50.194;7.690;2022-12-29T15:47:44;11.80;;;1.43;;
18449;SDS011;9354;50.194;7.690;2022-12-29T15:50:19;5.00;;;1.13;;